sensor_id;sensor_type;location;lat;lon;timestamp;pressure;altitude;pressure_sealevel;temperature;humidity
49877;BME280;35771;48.978;9.294;2023-02-26T00:01:17;98555.47;;;-1.80;100.00
49877;BME280;35771;48.978;9.294;2023-02-26T00:03:47;98559.84;;;-1.79;100.00
49877;BME280;35771;48.978;9.294;2023-02-26T00:06:14;98578.63;;;-1.81;100.00
49877;BME280;35771;48.978;9.294;2023-02-26T00:08:40;98572.06;;;-1.99;100.00
49877;BME280;35771;48.978;9.294;2023-02-26T00:11:08;98591.56;;;-1.99;100.00
49877;BME280;35771;48.978;9.294;2023-02-26T00:13:37;98562.84;;;-2.06;100.00
49877;BME280;35771;48.978;9.294;2023-02-26T00:16:12;98584.06;;;-1.93;100.00
49877;BME280;35771;48.978;9.294;2023-02-26T00:18:41;98586.84;;;-1.95;100.00
49877;BME280;35771;48.978;9.294;2023-02-26T00:21:14;98591.44;;;-2.08;100.00
49877;BME280;35771;48.978;9.294;2023-02-26T00:23:41;98600.72;;;-2.25;100.00
49877;BME280;35771;48.978;9.294;2023-02-26T00:26:08;98597.94;;;-2.24;100.00
49877;BME280;35771;48.978;9.294;2023-02-26T00:28:38;98568.84;;;-2.50;100.00
49877;BME280;35771;48.978;9.294;2023-02-26T00:31:05;98600.19;;;-2.42;100.00
49877;BME280;35771;48.978;9.294;2023-02-26T00:33:32;98590.50;;;-2.43;100.00
49877;BME280;35771;48.978;9.294;2023-02-26T00:36:05;98579.59;;;-2.51;100.00
49877;BME280;35771;48.978;9.294;2023-02-26T00:38:36;98568.06;;;-2.63;100.00
49877;BME280;35771;48.978;9.294;2023-02-26T00:41:03;98585.41;;;-2.57;100.00
49877;BME280;35771;48.978;9.294;2023-02-26T00:43:30;98603.78;;;-2.54;100.00
49877;BME280;35771;48.978;9.294;2023-02-26T00:46:04;98597.84;;;-2.58;100.00
49877;BME280;35771;48.978;9.294;2023-02-26T00:48:42;98580.84;;;-2.68;100.00
49877;BME280;35771;48.978;9.294;2023-02-26T00:51:18;98580.53;;;-2.63;100.00
49877;BME280;35771;48.978;9.294;2023-02-26T00:53:49;98588.84;;;-2.68;100.00
49877;BME280;35771;48.978;9.294;2023-02-26T00:56:20;98604.50;;;-2.63;100.00
49877;BME280;35771;48.978;9.294;2023-02-26T00:58:46;98583.09;;;-2.62;100.00
49877;BME280;35771;48.978;9.294;2023-02-26T01:01:14;98591.19;;;-2.63;100.00
49877;BME280;35771;48.978;9.294;2023-02-26T01:03:41;98574.47;;;-2.65;100.00
49877;BME280;35771;48.978;9.294;2023-02-26T01:06:10;98566.38;;;-2.64;100.00
49877;BME280;35771;48.978;9.294;2023-02-26T01:08:43;98591.78;;;-2.60;100.00
49877;BME280;35771;48.978;9.294;2023-02-26T01:11:11;98586.03;;;-2.78;100.00
49877;BME280;35771;48.978;9.294;2023-02-26T01:13:38;98578.50;;;-2.84;100.00
49877;BME280;35771;48.978;9.294;2023-02-26T01:16:08;98583.94;;;-2.86;100.00
49877;BME280;35771;48.978;9.294;2023-02-26T01:18:42;98582.97;;;-2.85;100.00
49877;BME280;35771;48.978;9.294;2023-02-26T01:21:15;98562.72;;;-2.98;100.00
49877;BME280;35771;48.978;9.294;2023-02-26T01:23:46;98587.34;;;-2.83;100.00
49877;BME280;35771;48.978;9.294;2023-02-26T01:26:20;98588.41;;;-2.86;100.00
49877;BME280;35771;48.978;9.294;2023-02-26T01:28:48;98576.66;;;-2.95;100.00
49877;BME280;35771;48.978;9.294;2023-02-26T01:31:25;98567.59;;;-2.92;100.00
49877;BME280;35771;48.978;9.294;2023-02-26T01:33:58;98575.56;;;-2.92;100.00
49877;BME280;35771;48.978;9.294;2023-02-26T01:36:32;98580.50;;;-2.99;100.00
49877;BME280;35771;48.978;9.294;2023-02-26T01:39:03;98577.25;;;-2.91;100.00
49877;BME280;35771;48.978;9.294;2023-02-26T01:41:35;98582.44;;;-3.01;100.00
49877;BME280;35771;48.978;9.294;2023-02-26T01:44:12;98584.75;;;-2.96;100.00
49877;BME280;35771;48.978;9.294;2023-02-26T01:46:53;98594.88;;;-3.02;100.00
49877;BME280;35771;48.978;9.294;2023-02-26T01:49:25;98596.38;;;-2.86;100.00
49877;BME280;35771;48.978;9.294;2023-02-26T01:51:53;98608.63;;;-3.08;100.00
49877;BME280;35771;48.978;9.294;2023-02-26T01:54:22;98604.88;;;-3.05;100.00
49877;BME280;35771;48.978;9.294;2023-02-26T01:56:53;98601.44;;;-3.18;100.00
49877;BME280;35771;48.978;9.294;2023-02-26T01:59:21;98617.38;;;-3.18;100.00
49877;BME280;35771;48.978;9.294;2023-02-26T02:01:49;98627.06;;;-3.17;100.00
49877;BME280;35771;48.978;9.294;2023-02-26T02:04:17;98600.63;;;-3.32;100.00
49877;BME280;35771;48.978;9.294;2023-02-26T02:06:46;98604.09;;;-3.31;100.00
49877;BME280;35771;48.978;9.294;2023-02-26T02:09:13;98607.69;;;-3.20;100.00
49877;BME280;35771;48.978;9.294;2023-02-26T02:11:53;98580.91;;;-3.53;100.00
49877;BME280;35771;48.978;9.294;2023-02-26T02:14:31;98587.06;;;-3.66;100.00
49877;BME280;35771;48.978;9.294;2023-02-26T02:17:07;98587.13;;;-3.79;100.00
49877;BME280;35771;48.978;9.294;2023-02-26T02:19:58;98613.47;;;-3.63;100.00
49877;BME280;35771;48.978;9.294;2023-02-26T02:22:51;98597.41;;;-3.87;100.00
49877;BME280;35771;48.978;9.294;2023-02-26T02:25:53;98596.34;;;-3.84;100.00
49877;BME280;35771;48.978;9.294;2023-02-26T02:28:33;98596.91;;;-3.79;100.00
49877;BME280;35771;48.978;9.294;2023-02-26T02:31:06;98632.91;;;-3.75;100.00
49877;BME280;35771;48.978;9.294;2023-02-26T02:33:39;98620.81;;;-3.79;100.00
49877;BME280;35771;48.978;9.294;2023-02-26T02:36:12;98628.13;;;-3.70;100.00
49877;BME280;35771;48.978;9.294;2023-02-26T02:38:44;98609.53;;;-3.83;100.00
49877;BME280;35771;48.978;9.294;2023-02-26T02:41:17;98619.53;;;-3.86;100.00
49877;BME280;35771;48.978;9.294;2023-02-26T02:43:46;98642.91;;;-3.79;100.00
49877;BME280;35771;48.978;9.294;2023-02-26T02:46:17;98641.19;;;-3.80;100.00
49877;BME280;35771;48.978;9.294;2023-02-26T02:48:48;98616.88;;;-3.99;100.00
49877;BME280;35771;48.978;9.294;2023-02-26T02:51:26;98633.13;;;-3.91;100.00
49877;BME280;35771;48.978;9.294;2023-02-26T02:53:56;98646.53;;;-3.93;100.00
49877;BME280;35771;48.978;9.294;2023-02-26T02:56:28;98637.38;;;-4.01;100.00
49877;BME280;35771;48.978;9.294;2023-02-26T02:59:11;98634.63;;;-4.00;100.00
49877;BME280;35771;48.978;9.294;2023-02-26T03:01:42;98641.28;;;-4.07;100.00
49877;BME280;35771;48.978;9.294;2023-02-26T03:04:12;98634.59;;;-4.13;100.00
49877;BME280;35771;48.978;9.294;2023-02-26T03:06:39;98647.38;;;-4.05;100.00
49877;BME280;35771;48.978;9.294;2023-02-26T03:09:08;98626.41;;;-4.10;100.00
49877;BME280;35771;48.978;9.294;2023-02-26T03:11:36;98647.16;;;-4.02;100.00
49877;BME280;35771;48.978;9.294;2023-02-26T03:14:03;98626.09;;;-4.18;100.00
49877;BME280;35771;48.978;9.294;2023-02-26T03:16:46;98655.94;;;-4.14;100.00
49877;BME280;35771;48.978;9.294;2023-02-26T03:19:19;98632.06;;;-4.27;100.00
49877;BME280;35771;48.978;9.294;2023-02-26T03:21:53;98659.31;;;-4.25;100.00
49877;BME280;35771;48.978;9.294;2023-02-26T03:24:25;98634.78;;;-4.41;100.00
49877;BME280;35771;48.978;9.294;2023-02-26T03:26:57;98638.88;;;-4.50;100.00
49877;BME280;35771;48.978;9.294;2023-02-26T03:29:32;98663.66;;;-4.37;100.00
49877;BME280;35771;48.978;9.294;2023-02-26T03:32:06;98663.84;;;-4.40;100.00
49877;BME280;35771;48.978;9.294;2023-02-26T03:34:37;98658.44;;;-4.51;100.00
49877;BME280;35771;48.978;9.294;2023-02-26T03:37:07;98679.69;;;-4.38;100.00
49877;BME280;35771;48.978;9.294;2023-02-26T03:39:41;98656.09;;;-4.56;100.00
49877;BME280;35771;48.978;9.294;2023-02-26T03:42:11;98692.31;;;-4.42;100.00
49877;BME280;35771;48.978;9.294;2023-02-26T03:44:43;98681.75;;;-4.56;100.00
49877;BME280;35771;48.978;9.294;2023-02-26T03:47:14;98697.25;;;-4.50;100.00
49877;BME280;35771;48.978;9.294;2023-02-26T03:49:44;98700.88;;;-4.51;100.00
49877;BME280;35771;48.978;9.294;2023-02-26T03:52:14;98697.88;;;-4.59;100.00
49877;BME280;35771;48.978;9.294;2023-02-26T03:54:44;98703.94;;;-4.57;100.00
49877;BME280;35771;48.978;9.294;2023-02-26T03:57:12;98677.47;;;-4.72;100.00
49877;BME280;35771;48.978;9.294;2023-02-26T03:59:39;98672.34;;;-4.75;100.00
49877;BME280;35771;48.978;9.294;2023-02-26T04:02:10;98713.25;;;-4.65;100.00
49877;BME280;35771;48.978;9.294;2023-02-26T04:04:41;98700.41;;;-4.71;100.00
49877;BME280;35771;48.978;9.294;2023-02-26T04:07:12;98688.38;;;-4.76;100.00
49877;BME280;35771;48.978;9.294;2023-02-26T04:09:39;98678.16;;;-4.83;100.00
49877;BME280;35771;48.978;9.294;2023-02-26T04:12:06;98686.72;;;-4.92;100.00
49877;BME280;35771;48.978;9.294;2023-02-26T04:14:33;98708.88;;;-4.93;100.00
49877;BME280;35771;48.978;9.294;2023-02-26T04:16:59;98728.31;;;-5.07;100.00
49877;BME280;35771;48.978;9.294;2023-02-26T04:19:26;98721.31;;;-5.08;100.00
49877;BME280;35771;48.978;9.294;2023-02-26T04:21:54;98700.69;;;-5.17;100.00
49877;BME280;35771;48.978;9.294;2023-02-26T04:24:20;98726.78;;;-4.96;100.00
49877;BME280;35771;48.978;9.294;2023-02-26T04:26:47;98728.81;;;-5.14;100.00
49877;BME280;35771;48.978;9.294;2023-02-26T04:29:14;98710.25;;;-5.29;100.00
49877;BME280;35771;48.978;9.294;2023-02-26T04:31:40;98719.69;;;-5.10;100.00
49877;BME280;35771;48.978;9.294;2023-02-26T04:34:07;98703.44;;;-5.33;100.00
49877;BME280;35771;48.978;9.294;2023-02-26T04:36:33;98716.97;;;-5.23;100.00
49877;BME280;35771;48.978;9.294;2023-02-26T04:39:01;98730.47;;;-4.99;100.00
49877;BME280;35771;48.978;9.294;2023-02-26T04:41:28;98711.19;;;-5.16;100.00
49877;BME280;35771;48.978;9.294;2023-02-26T04:43:54;98721.59;;;-5.12;100.00
49877;BME280;35771;48.978;9.294;2023-02-26T04:46:21;98710.44;;;-5.32;100.00
49877;BME280;35771;48.978;9.294;2023-02-26T04:48:48;98709.50;;;-5.31;100.00
49877;BME280;35771;48.978;9.294;2023-02-26T04:51:14;98709.41;;;-5.29;100.00
49877;BME280;35771;48.978;9.294;2023-02-26T04:53:42;98732.19;;;-5.12;100.00
49877;BME280;35771;48.978;9.294;2023-02-26T04:56:11;98713.94;;;-5.31;100.00
49877;BME280;35771;48.978;9.294;2023-02-26T04:58:37;98703.44;;;-5.33;100.00
49877;BME280;35771;48.978;9.294;2023-02-26T05:01:04;98721.44;;;-5.24;100.00
49877;BME280;35771;48.978;9.294;2023-02-26T05:03:31;98740.94;;;-5.25;100.00
49877;BME280;35771;48.978;9.294;2023-02-26T05:05:58;98746.22;;;-5.25;100.00
49877;BME280;35771;48.978;9.294;2023-02-26T05:08:25;98742.44;;;-5.21;100.00
49877;BME280;35771;48.978;9.294;2023-02-26T05:10:51;98717.25;;;-5.42;100.00
49877;BME280;35771;48.978;9.294;2023-02-26T05:13:19;98726.94;;;-5.41;100.00
49877;BME280;35771;48.978;9.294;2023-02-26T05:15:46;98762.22;;;-5.26;100.00
49877;BME280;35771;48.978;9.294;2023-02-26T05:18:12;98755.13;;;-5.26;100.00
49877;BME280;35771;48.978;9.294;2023-02-26T05:20:39;98751.91;;;-5.31;100.00
49877;BME280;35771;48.978;9.294;2023-02-26T05:23:05;98755.00;;;-5.24;100.00
49877;BME280;35771;48.978;9.294;2023-02-26T05:25:32;98752.94;;;-5.34;100.00
49877;BME280;35771;48.978;9.294;2023-02-26T05:27:58;98766.00;;;-5.30;100.00
49877;BME280;35771;48.978;9.294;2023-02-26T05:30:28;98744.03;;;-5.47;100.00
49877;BME280;35771;48.978;9.294;2023-02-26T05:32:55;98762.03;;;-5.52;100.00
49877;BME280;35771;48.978;9.294;2023-02-26T05:35:21;98765.41;;;-5.50;100.00
49877;BME280;35771;48.978;9.294;2023-02-26T05:37:48;98760.41;;;-5.55;100.00
49877;BME280;35771;48.978;9.294;2023-02-26T05:40:15;98782.00;;;-5.32;100.00
49877;BME280;35771;48.978;9.294;2023-02-26T05:42:41;98748.78;;;-5.52;100.00
49877;BME280;35771;48.978;9.294;2023-02-26T05:45:08;98777.91;;;-5.38;100.00
49877;BME280;35771;48.978;9.294;2023-02-26T05:47:37;98793.16;;;-5.41;100.00
49877;BME280;35771;48.978;9.294;2023-02-26T05:50:04;98765.72;;;-5.55;100.00
49877;BME280;35771;48.978;9.294;2023-02-26T05:52:31;98799.94;;;-5.52;100.00
49877;BME280;35771;48.978;9.294;2023-02-26T05:54:58;98775.25;;;-5.66;100.00
49877;BME280;35771;48.978;9.294;2023-02-26T05:57:25;98775.13;;;-5.79;100.00
49877;BME280;35771;48.978;9.294;2023-02-26T05:59:51;98804.38;;;-5.66;100.00
49877;BME280;35771;48.978;9.294;2023-02-26T06:02:18;98776.16;;;-5.82;100.00
49877;BME280;35771;48.978;9.294;2023-02-26T06:04:46;98777.31;;;-5.72;100.00
49877;BME280;35771;48.978;9.294;2023-02-26T06:07:13;98777.88;;;-5.66;100.00
49877;BME280;35771;48.978;9.294;2023-02-26T06:09:39;98815.75;;;-5.50;100.00
49877;BME280;35771;48.978;9.294;2023-02-26T06:12:06;98808.28;;;-5.58;100.00
49877;BME280;35771;48.978;9.294;2023-02-26T06:14:33;98799.13;;;-5.52;100.00
49877;BME280;35771;48.978;9.294;2023-02-26T06:17:00;98822.78;;;-5.35;100.00
49877;BME280;35771;48.978;9.294;2023-02-26T06:19:27;98808.13;;;-5.40;100.00
49877;BME280;35771;48.978;9.294;2023-02-26T06:21:55;98811.97;;;-5.31;100.00
49877;BME280;35771;48.978;9.294;2023-02-26T06:24:22;98818.06;;;-5.29;100.00
49877;BME280;35771;48.978;9.294;2023-02-26T06:26:48;98821.00;;;-5.20;100.00
49877;BME280;35771;48.978;9.294;2023-02-26T06:29:15;98836.31;;;-5.10;100.00
49877;BME280;35771;48.978;9.294;2023-02-26T06:31:44;98819.13;;;-5.18;100.00
49877;BME280;35771;48.978;9.294;2023-02-26T06:34:11;98820.78;;;-5.17;100.00
49877;BME280;35771;48.978;9.294;2023-02-26T06:36:38;98834.53;;;-5.10;100.00
49877;BME280;35771;48.978;9.294;2023-02-26T06:39:06;98857.84;;;-5.01;100.00
49877;BME280;35771;48.978;9.294;2023-02-26T06:41:40;98855.56;;;-4.92;100.00
49877;BME280;35771;48.978;9.294;2023-02-26T06:44:14;98843.63;;;-5.14;100.00
49877;BME280;35771;48.978;9.294;2023-02-26T06:46:57;98843.75;;;-5.01;100.00
49877;BME280;35771;48.978;9.294;2023-02-26T06:49:23;98875.06;;;-4.93;100.00
49877;BME280;35771;48.978;9.294;2023-02-26T06:51:50;98860.38;;;-4.99;100.00
49877;BME280;35771;48.978;9.294;2023-02-26T06:54:18;98865.13;;;-4.90;100.00
49877;BME280;35771;48.978;9.294;2023-02-26T06:56:44;98864.75;;;-4.84;100.00
49877;BME280;35771;48.978;9.294;2023-02-26T06:59:11;98879.97;;;-4.73;100.00
49877;BME280;35771;48.978;9.294;2023-02-26T07:01:39;98884.91;;;-4.67;100.00
49877;BME280;35771;48.978;9.294;2023-02-26T07:04:06;98877.91;;;-4.68;100.00
49877;BME280;35771;48.978;9.294;2023-02-26T07:06:32;98903.97;;;-4.60;100.00
49877;BME280;35771;48.978;9.294;2023-02-26T07:08:59;98917.97;;;-4.43;100.00
49877;BME280;35771;48.978;9.294;2023-02-26T07:11:26;98873.66;;;-4.56;100.00
49877;BME280;35771;48.978;9.294;2023-02-26T07:13:53;98901.56;;;-4.50;100.00
49877;BME280;35771;48.978;9.294;2023-02-26T07:16:20;98924.47;;;-4.20;100.00
49877;BME280;35771;48.978;9.294;2023-02-26T07:18:46;98896.03;;;-4.18;100.00
49877;BME280;35771;48.978;9.294;2023-02-26T07:21:13;98906.91;;;-4.09;100.00
49877;BME280;35771;48.978;9.294;2023-02-26T07:23:39;98910.03;;;-4.02;100.00
49877;BME280;35771;48.978;9.294;2023-02-26T07:26:06;98901.69;;;-3.96;100.00
49877;BME280;35771;48.978;9.294;2023-02-26T07:28:34;98925.13;;;-3.75;100.00
49877;BME280;35771;48.978;9.294;2023-02-26T07:31:01;98899.97;;;-3.97;100.00
49877;BME280;35771;48.978;9.294;2023-02-26T07:33:28;98899.25;;;-3.86;100.00
49877;BME280;35771;48.978;9.294;2023-02-26T07:35:56;98935.59;;;-3.59;100.00
49877;BME280;35771;48.978;9.294;2023-02-26T07:38:23;98921.69;;;-3.50;100.00
49877;BME280;35771;48.978;9.294;2023-02-26T07:40:49;98907.88;;;-3.55;100.00
49877;BME280;35771;48.978;9.294;2023-02-26T07:43:16;98911.13;;;-3.37;100.00
49877;BME280;35771;48.978;9.294;2023-02-26T07:45:43;98906.69;;;-3.24;100.00
49877;BME280;35771;48.978;9.294;2023-02-26T07:48:10;98916.53;;;-3.26;100.00
49877;BME280;35771;48.978;9.294;2023-02-26T07:50:36;98942.00;;;-3.09;100.00
49877;BME280;35771;48.978;9.294;2023-02-26T07:53:03;98923.06;;;-3.04;100.00
49877;BME280;35771;48.978;9.294;2023-02-26T07:55:30;98907.63;;;-3.12;100.00
49877;BME280;35771;48.978;9.294;2023-02-26T07:57:56;98924.13;;;-2.94;100.00
49877;BME280;35771;48.978;9.294;2023-02-26T08:00:26;98925.56;;;-2.75;100.00
49877;BME280;35771;48.978;9.294;2023-02-26T08:02:54;98925.53;;;-2.62;100.00
49877;BME280;35771;48.978;9.294;2023-02-26T08:05:23;98920.19;;;-2.37;100.00
49877;BME280;35771;48.978;9.294;2023-02-26T08:07:50;98933.88;;;-2.17;100.00
49877;BME280;35771;48.978;9.294;2023-02-26T08:10:16;98935.59;;;-2.16;100.00
49877;BME280;35771;48.978;9.294;2023-02-26T08:12:43;98928.38;;;-1.90;100.00
49877;BME280;35771;48.978;9.294;2023-02-26T08:15:10;98949.31;;;-1.72;100.00
49877;BME280;35771;48.978;9.294;2023-02-26T08:17:38;98931.41;;;-2.07;100.00
49877;BME280;35771;48.978;9.294;2023-02-26T08:20:08;98945.09;;;-2.25;100.00
49877;BME280;35771;48.978;9.294;2023-02-26T08:22:36;98962.63;;;-2.09;100.00
49877;BME280;35771;48.978;9.294;2023-02-26T08:25:03;98944.97;;;-2.23;100.00
49877;BME280;35771;48.978;9.294;2023-02-26T08:27:30;98944.31;;;-2.14;100.00
49877;BME280;35771;48.978;9.294;2023-02-26T08:29:56;98940.41;;;-2.21;100.00
49877;BME280;35771;48.978;9.294;2023-02-26T08:32:23;98947.53;;;-2.09;100.00
49877;BME280;35771;48.978;9.294;2023-02-26T08:34:51;98932.25;;;-2.07;100.00
49877;BME280;35771;48.978;9.294;2023-02-26T08:37:19;98951.03;;;-2.08;100.00
49877;BME280;35771;48.978;9.294;2023-02-26T08:39:48;98955.75;;;-2.25;100.00
49877;BME280;35771;48.978;9.294;2023-02-26T08:42:18;98939.25;;;-2.43;100.00
49877;BME280;35771;48.978;9.294;2023-02-26T08:44:45;98973.44;;;-2.24;100.00
49877;BME280;35771;48.978;9.294;2023-02-26T08:47:11;98975.03;;;-2.21;100.00
49877;BME280;35771;48.978;9.294;2023-02-26T08:49:38;98940.75;;;-2.39;100.00
49877;BME280;35771;48.978;9.294;2023-02-26T08:52:05;98968.09;;;-2.24;100.00
49877;BME280;35771;48.978;9.294;2023-02-26T08:54:33;98955.78;;;-2.38;100.00
49877;BME280;35771;48.978;9.294;2023-02-26T08:59:34;98959.34;;;-2.26;100.00
49877;BME280;35771;48.978;9.294;2023-02-26T09:02:02;98979.06;;;-2.16;100.00
49877;BME280;35771;48.978;9.294;2023-02-26T09:04:29;98951.69;;;-2.18;100.00
49877;BME280;35771;48.978;9.294;2023-02-26T09:06:56;98991.91;;;-1.97;100.00
49877;BME280;35771;48.978;9.294;2023-02-26T09:09:22;98980.22;;;-2.07;100.00
49877;BME280;35771;48.978;9.294;2023-02-26T09:11:50;98986.69;;;-1.98;100.00
49877;BME280;35771;48.978;9.294;2023-02-26T09:14:17;98984.31;;;-1.90;100.00
49877;BME280;35771;48.978;9.294;2023-02-26T09:16:43;98985.47;;;-1.81;100.00
49877;BME280;35771;48.978;9.294;2023-02-26T09:19:10;98971.13;;;-1.91;100.00
49877;BME280;35771;48.978;9.294;2023-02-26T09:21:36;98986.47;;;-1.95;100.00
49877;BME280;35771;48.978;9.294;2023-02-26T09:24:03;98980.50;;;-1.86;100.00
49877;BME280;35771;48.978;9.294;2023-02-26T09:26:30;99010.84;;;-1.75;100.00
49877;BME280;35771;48.978;9.294;2023-02-26T09:28:58;99005.53;;;-1.88;100.00
49877;BME280;35771;48.978;9.294;2023-02-26T09:31:25;98987.44;;;-1.96;100.00
49877;BME280;35771;48.978;9.294;2023-02-26T09:33:52;98996.59;;;-1.87;100.00
49877;BME280;35771;48.978;9.294;2023-02-26T09:36:19;99005.41;;;-1.74;100.00
49877;BME280;35771;48.978;9.294;2023-02-26T09:38:45;98981.09;;;-1.69;100.00
49877;BME280;35771;48.978;9.294;2023-02-26T09:41:16;98985.94;;;-1.50;100.00
49877;BME280;35771;48.978;9.294;2023-02-26T09:43:55;99013.91;;;-1.08;100.00
49877;BME280;35771;48.978;9.294;2023-02-26T09:46:37;99007.03;;;-0.99;100.00
49877;BME280;35771;48.978;9.294;2023-02-26T09:49:15;98991.94;;;-1.11;100.00
49877;BME280;35771;48.978;9.294;2023-02-26T09:51:45;98996.63;;;-1.15;100.00
49877;BME280;35771;48.978;9.294;2023-02-26T09:54:15;98993.25;;;-1.17;100.00
49877;BME280;35771;48.978;9.294;2023-02-26T09:56:43;99013.78;;;-1.06;100.00
49877;BME280;35771;48.978;9.294;2023-02-26T09:59:10;99022.75;;;-0.72;100.00
49877;BME280;35771;48.978;9.294;2023-02-26T10:01:43;99020.03;;;-0.83;100.00
49877;BME280;35771;48.978;9.294;2023-02-26T10:04:19;99010.72;;;-0.77;100.00
49877;BME280;35771;48.978;9.294;2023-02-26T10:06:58;99038.84;;;-0.49;99.70
49877;BME280;35771;48.978;9.294;2023-02-26T10:09:35;99005.91;;;-0.61;99.84
49877;BME280;35771;48.978;9.294;2023-02-26T10:12:06;99029.00;;;-0.48;99.43
49877;BME280;35771;48.978;9.294;2023-02-26T10:14:37;99041.03;;;-0.43;97.59
49877;BME280;35771;48.978;9.294;2023-02-26T10:17:15;99014.09;;;-0.51;99.16
49877;BME280;35771;48.978;9.294;2023-02-26T10:19:48;99012.25;;;-0.50;97.66
49877;BME280;35771;48.978;9.294;2023-02-26T10:22:23;99037.00;;;-0.48;97.88
49877;BME280;35771;48.978;9.294;2023-02-26T10:24:56;99052.00;;;-0.23;97.69
49877;BME280;35771;48.978;9.294;2023-02-26T10:27:36;99029.56;;;-0.21;96.24
49877;BME280;35771;48.978;9.294;2023-02-26T10:30:07;99041.72;;;-0.16;95.26
49877;BME280;35771;48.978;9.294;2023-02-26T10:32:41;99053.00;;;-0.02;92.51
49877;BME280;35771;48.978;9.294;2023-02-26T10:35:14;99041.34;;;-0.01;95.37
49877;BME280;35771;48.978;9.294;2023-02-26T10:37:47;99031.97;;;-0.06;96.23
49877;BME280;35771;48.978;9.294;2023-02-26T10:40:17;99041.59;;;-0.15;93.09
49877;BME280;35771;48.978;9.294;2023-02-26T10:42:47;99028.13;;;0.09;94.70
49877;BME280;35771;48.978;9.294;2023-02-26T10:45:26;99022.78;;;0.09;91.57
49877;BME280;35771;48.978;9.294;2023-02-26T10:48:10;99027.50;;;0.17;92.93
49877;BME280;35771;48.978;9.294;2023-02-26T10:50:45;99038.44;;;0.03;91.98
49877;BME280;35771;48.978;9.294;2023-02-26T10:53:13;99049.47;;;-0.02;92.92
49877;BME280;35771;48.978;9.294;2023-02-26T10:55:42;99045.94;;;-0.14;89.03
49877;BME280;35771;48.978;9.294;2023-02-26T10:58:10;99066.25;;;0.11;92.29
49877;BME280;35771;48.978;9.294;2023-02-26T11:00:38;99068.56;;;0.16;92.54
49877;BME280;35771;48.978;9.294;2023-02-26T11:03:09;99040.38;;;0.01;91.39
49877;BME280;35771;48.978;9.294;2023-02-26T11:05:39;99058.81;;;-0.08;89.26
49877;BME280;35771;48.978;9.294;2023-02-26T11:08:10;99065.66;;;0.08;89.78
49877;BME280;35771;48.978;9.294;2023-02-26T11:10:41;99037.56;;;-0.09;86.62
49877;BME280;35771;48.978;9.294;2023-02-26T11:13:08;99063.69;;;-0.02;86.46
49877;BME280;35771;48.978;9.294;2023-02-26T11:15:35;99052.88;;;-0.11;87.13
49877;BME280;35771;48.978;9.294;2023-02-26T11:18:02;99065.88;;;-0.07;84.95
49877;BME280;35771;48.978;9.294;2023-02-26T11:20:34;99065.19;;;0.14;88.10
49877;BME280;35771;48.978;9.294;2023-02-26T11:23:05;99074.88;;;0.15;85.19
49877;BME280;35771;48.978;9.294;2023-02-26T11:25:33;99044.16;;;0.09;84.50
49877;BME280;35771;48.978;9.294;2023-02-26T11:28:02;99048.63;;;0.09;84.72
49877;BME280;35771;48.978;9.294;2023-02-26T11:30:33;99060.06;;;0.11;86.93
49877;BME280;35771;48.978;9.294;2023-02-26T11:33:10;99082.53;;;0.20;85.63
49877;BME280;35771;48.978;9.294;2023-02-26T11:35:40;99041.34;;;0.22;86.95
49877;BME280;35771;48.978;9.294;2023-02-26T11:38:15;99069.41;;;0.50;88.38
49877;BME280;35771;48.978;9.294;2023-02-26T11:40:45;99055.06;;;0.40;86.79
49877;BME280;35771;48.978;9.294;2023-02-26T11:43:14;99063.44;;;0.58;84.82
49877;BME280;35771;48.978;9.294;2023-02-26T11:45:44;99066.19;;;0.91;87.94
49877;BME280;35771;48.978;9.294;2023-02-26T11:48:15;99054.03;;;0.75;82.33
49877;BME280;35771;48.978;9.294;2023-02-26T11:50:48;99037.53;;;0.59;85.75
49877;BME280;35771;48.978;9.294;2023-02-26T11:53:18;99042.06;;;0.47;84.70
49877;BME280;35771;48.978;9.294;2023-02-26T11:55:46;99042.75;;;0.72;87.18
49877;BME280;35771;48.978;9.294;2023-02-26T11:58:19;99043.34;;;0.75;86.65
49877;BME280;35771;48.978;9.294;2023-02-26T12:00:46;99056.59;;;0.77;85.03
49877;BME280;35771;48.978;9.294;2023-02-26T12:03:17;99051.78;;;0.59;84.83
49877;BME280;35771;48.978;9.294;2023-02-26T12:05:43;99086.53;;;0.70;84.43
